sensor_id;sensor_type;location;lat;lon;timestamp;temperature;humidity
4002;DHT22;2015;48.670;9.060;2023-12-20T00:00:41;6.00;99.90
4002;DHT22;2015;48.670;9.060;2023-12-20T00:03:13;6.00;99.90
4002;DHT22;2015;48.670;9.060;2023-12-20T00:05:45;6.00;99.90
4002;DHT22;2015;48.670;9.060;2023-12-20T00:08:17;6.00;99.90
4002;DHT22;2015;48.670;9.060;2023-12-20T00:10:49;6.10;99.90
4002;DHT22;2015;48.670;9.060;2023-12-20T00:13:20;6.10;99.90
4002;DHT22;2015;48.670;9.060;2023-12-20T00:15:52;6.10;99.90
4002;DHT22;2015;48.670;9.060;2023-12-20T00:18:24;6.10;99.90
4002;DHT22;2015;48.670;9.060;2023-12-20T00:20:56;6.10;99.90
4002;DHT22;2015;48.670;9.060;2023-12-20T00:23:28;6.10;99.90
4002;DHT22;2015;48.670;9.060;2023-12-20T00:26:00;6.10;99.90
4002;DHT22;2015;48.670;9.060;2023-12-20T00:28:32;6.00;99.90
4002;DHT22;2015;48.670;9.060;2023-12-20T00:31:04;5.90;99.90
4002;DHT22;2015;48.670;9.060;2023-12-20T00:33:36;5.90;99.90
4002;DHT22;2015;48.670;9.060;2023-12-20T00:36:09;5.80;99.90
4002;DHT22;2015;48.670;9.060;2023-12-20T00:38:41;5.80;99.90
4002;DHT22;2015;48.670;9.060;2023-12-20T00:41:13;5.80;99.90
4002;DHT22;2015;48.670;9.060;2023-12-20T00:43:45;5.70;99.90
4002;DHT22;2015;48.670;9.060;2023-12-20T00:46:16;5.70;99.90
4002;DHT22;2015;48.670;9.060;2023-12-20T00:48:48;5.70;99.90
4002;DHT22;2015;48.670;9.060;2023-12-20T00:51:20;5.60;99.90
4002;DHT22;2015;48.670;9.060;2023-12-20T00:53:52;5.60;99.90
4002;DHT22;2015;48.670;9.060;2023-12-20T00:56:26;5.60;99.90
4002;DHT22;2015;48.670;9.060;2023-12-20T00:58:58;5.60;99.90
4002;DHT22;2015;48.670;9.060;2023-12-20T01:01:30;5.60;99.90
4002;DHT22;2015;48.670;9.060;2023-12-20T01:04:02;5.60;99.90
4002;DHT22;2015;48.670;9.060;2023-12-20T01:06:34;5.60;99.90
4002;DHT22;2015;48.670;9.060;2023-12-20T01:09:05;5.60;99.90
4002;DHT22;2015;48.670;9.060;2023-12-20T01:11:37;5.50;99.90
4002;DHT22;2015;48.670;9.060;2023-12-20T01:14:09;5.50;99.90
4002;DHT22;2015;48.670;9.060;2023-12-20T01:16:41;5.50;99.90
4002;DHT22;2015;48.670;9.060;2023-12-20T01:19:13;5.50;99.90
4002;DHT22;2015;48.670;9.060;2023-12-20T01:21:45;5.50;99.90
4002;DHT22;2015;48.670;9.060;2023-12-20T01:24:17;5.40;99.90
4002;DHT22;2015;48.670;9.060;2023-12-20T01:26:48;5.40;99.90
4002;DHT22;2015;48.670;9.060;2023-12-20T01:29:20;5.40;99.90
4002;DHT22;2015;48.670;9.060;2023-12-20T01:31:52;5.40;99.90
4002;DHT22;2015;48.670;9.060;2023-12-20T01:34:24;5.40;99.90
4002;DHT22;2015;48.670;9.060;2023-12-20T01:36:56;5.40;99.90
4002;DHT22;2015;48.670;9.060;2023-12-20T01:39:28;5.40;99.90
4002;DHT22;2015;48.670;9.060;2023-12-20T01:42:00;5.40;99.90
4002;DHT22;2015;48.670;9.060;2023-12-20T01:44:32;5.30;99.90
4002;DHT22;2015;48.670;9.060;2023-12-20T01:47:04;5.40;99.90
4002;DHT22;2015;48.670;9.060;2023-12-20T01:49:36;5.30;99.90
4002;DHT22;2015;48.670;9.060;2023-12-20T01:52:09;5.40;99.90
4002;DHT22;2015;48.670;9.060;2023-12-20T01:54:44;5.30;99.90
4002;DHT22;2015;48.670;9.060;2023-12-20T01:57:16;5.30;99.90
4002;DHT22;2015;48.670;9.060;2023-12-20T01:59:48;5.40;99.90
4002;DHT22;2015;48.670;9.060;2023-12-20T02:02:20;5.40;99.90
4002;DHT22;2015;48.670;9.060;2023-12-20T02:04:51;5.40;99.90
4002;DHT22;2015;48.670;9.060;2023-12-20T02:07:23;5.40;99.90
4002;DHT22;2015;48.670;9.060;2023-12-20T02:09:56;5.40;99.90
4002;DHT22;2015;48.670;9.060;2023-12-20T02:12:28;5.40;99.90
4002;DHT22;2015;48.670;9.060;2023-12-20T02:15:00;5.40;99.90
4002;DHT22;2015;48.670;9.060;2023-12-20T02:17:32;5.40;99.90
4002;DHT22;2015;48.670;9.060;2023-12-20T02:20:04;5.40;99.90
4002;DHT22;2015;48.670;9.060;2023-12-20T02:22:37;5.50;99.90
4002;DHT22;2015;48.670;9.060;2023-12-20T02:25:09;5.40;99.90
4002;DHT22;2015;48.670;9.060;2023-12-20T02:27:41;5.50;99.90
4002;DHT22;2015;48.670;9.060;2023-12-20T02:30:14;5.50;99.90
4002;DHT22;2015;48.670;9.060;2023-12-20T02:32:46;5.40;99.90
4002;DHT22;2015;48.670;9.060;2023-12-20T02:35:18;5.40;99.90
4002;DHT22;2015;48.670;9.060;2023-12-20T02:37:50;5.50;99.90
4002;DHT22;2015;48.670;9.060;2023-12-20T02:40:21;5.50;99.90
4002;DHT22;2015;48.670;9.060;2023-12-20T02:42:53;5.50;99.90
4002;DHT22;2015;48.670;9.060;2023-12-20T02:45:26;5.50;99.90
4002;DHT22;2015;48.670;9.060;2023-12-20T02:47:58;5.50;99.90
4002;DHT22;2015;48.670;9.060;2023-12-20T02:50:30;5.40;99.90
4002;DHT22;2015;48.670;9.060;2023-12-20T02:53:02;5.40;99.90
4002;DHT22;2015;48.670;9.060;2023-12-20T02:55:34;5.50;99.90
4002;DHT22;2015;48.670;9.060;2023-12-20T02:58:06;5.40;99.90
4002;DHT22;2015;48.670;9.060;2023-12-20T03:00:38;5.50;99.90
4002;DHT22;2015;48.670;9.060;2023-12-20T03:03:09;5.40;99.90
4002;DHT22;2015;48.670;9.060;2023-12-20T03:05:41;5.40;99.90
4002;DHT22;2015;48.670;9.060;2023-12-20T03:08:13;5.40;99.90
4002;DHT22;2015;48.670;9.060;2023-12-20T03:10:45;5.40;99.90
4002;DHT22;2015;48.670;9.060;2023-12-20T03:13:17;5.40;99.90
4002;DHT22;2015;48.670;9.060;2023-12-20T03:15:49;5.40;99.90
4002;DHT22;2015;48.670;9.060;2023-12-20T03:18:20;5.30;99.90
4002;DHT22;2015;48.670;9.060;2023-12-20T03:20:52;5.40;99.90
4002;DHT22;2015;48.670;9.060;2023-12-20T03:23:24;5.40;99.90
4002;DHT22;2015;48.670;9.060;2023-12-20T03:25:56;5.40;99.90
4002;DHT22;2015;48.670;9.060;2023-12-20T03:28:29;5.40;99.90
4002;DHT22;2015;48.670;9.060;2023-12-20T03:31:01;5.50;99.90
4002;DHT22;2015;48.670;9.060;2023-12-20T03:33:34;5.40;99.90
4002;DHT22;2015;48.670;9.060;2023-12-20T03:36:06;5.40;99.90
4002;DHT22;2015;48.670;9.060;2023-12-20T03:38:38;5.40;99.90
4002;DHT22;2015;48.670;9.060;2023-12-20T03:41:11;5.40;99.90
4002;DHT22;2015;48.670;9.060;2023-12-20T03:43:42;5.40;99.90
4002;DHT22;2015;48.670;9.060;2023-12-20T03:46:14;5.40;99.90
4002;DHT22;2015;48.670;9.060;2023-12-20T03:48:46;5.40;99.90
4002;DHT22;2015;48.670;9.060;2023-12-20T03:51:18;5.30;99.90
4002;DHT22;2015;48.670;9.060;2023-12-20T03:53:50;5.20;99.90
4002;DHT22;2015;48.670;9.060;2023-12-20T03:56:21;5.20;99.90
4002;DHT22;2015;48.670;9.060;2023-12-20T03:58:53;5.20;99.90
4002;DHT22;2015;48.670;9.060;2023-12-20T04:01:25;5.20;99.90
4002;DHT22;2015;48.670;9.060;2023-12-20T04:03:57;5.20;99.90
4002;DHT22;2015;48.670;9.060;2023-12-20T04:06:29;5.20;99.90
4002;DHT22;2015;48.670;9.060;2023-12-20T04:09:01;5.20;99.90
4002;DHT22;2015;48.670;9.060;2023-12-20T04:11:33;5.20;99.90
4002;DHT22;2015;48.670;9.060;2023-12-20T04:14:04;5.20;99.90
4002;DHT22;2015;48.670;9.060;2023-12-20T04:16:36;5.20;99.90
4002;DHT22;2015;48.670;9.060;2023-12-20T04:19:08;5.20;99.90
4002;DHT22;2015;48.670;9.060;2023-12-20T04:21:40;5.00;99.90
4002;DHT22;2015;48.670;9.060;2023-12-20T04:24:12;5.10;99.90
4002;DHT22;2015;48.670;9.060;2023-12-20T04:26:44;5.10;99.90
4002;DHT22;2015;48.670;9.060;2023-12-20T04:29:16;5.10;99.90
4002;DHT22;2015;48.670;9.060;2023-12-20T04:31:47;5.10;99.90
4002;DHT22;2015;48.670;9.060;2023-12-20T04:34:19;5.10;99.90
4002;DHT22;2015;48.670;9.060;2023-12-20T04:36:52;5.10;99.90
4002;DHT22;2015;48.670;9.060;2023-12-20T04:39:24;5.00;99.90
4002;DHT22;2015;48.670;9.060;2023-12-20T04:41:55;5.00;99.90
4002;DHT22;2015;48.670;9.060;2023-12-20T04:44:27;4.90;99.90
4002;DHT22;2015;48.670;9.060;2023-12-20T04:46:59;5.00;99.90
4002;DHT22;2015;48.670;9.060;2023-12-20T04:49:31;5.00;99.90
4002;DHT22;2015;48.670;9.060;2023-12-20T04:52:04;5.00;99.90
4002;DHT22;2015;48.670;9.060;2023-12-20T04:54:35;5.00;99.90
4002;DHT22;2015;48.670;9.060;2023-12-20T04:57:07;5.10;99.90
4002;DHT22;2015;48.670;9.060;2023-12-20T04:59:39;5.00;99.90
4002;DHT22;2015;48.670;9.060;2023-12-20T05:02:11;5.10;99.90
4002;DHT22;2015;48.670;9.060;2023-12-20T05:04:43;5.10;99.90
4002;DHT22;2015;48.670;9.060;2023-12-20T05:07:15;5.10;99.90
4002;DHT22;2015;48.670;9.060;2023-12-20T05:09:47;5.00;99.90
4002;DHT22;2015;48.670;9.060;2023-12-20T05:12:19;5.10;99.90
4002;DHT22;2015;48.670;9.060;2023-12-20T05:14:52;5.00;99.90
4002;DHT22;2015;48.670;9.060;2023-12-20T05:17:24;5.10;99.90
4002;DHT22;2015;48.670;9.060;2023-12-20T05:19:55;5.00;99.90
4002;DHT22;2015;48.670;9.060;2023-12-20T05:22:27;5.00;99.90
4002;DHT22;2015;48.670;9.060;2023-12-20T05:24:59;5.00;99.90
4002;DHT22;2015;48.670;9.060;2023-12-20T05:27:31;5.00;99.90
4002;DHT22;2015;48.670;9.060;2023-12-20T05:30:03;4.90;99.90
4002;DHT22;2015;48.670;9.060;2023-12-20T05:32:36;4.90;99.90
4002;DHT22;2015;48.670;9.060;2023-12-20T05:35:08;4.90;99.90
4002;DHT22;2015;48.670;9.060;2023-12-20T05:37:40;4.90;99.90
4002;DHT22;2015;48.670;9.060;2023-12-20T05:40:12;4.90;99.90
4002;DHT22;2015;48.670;9.060;2023-12-20T05:42:44;4.90;99.90
4002;DHT22;2015;48.670;9.060;2023-12-20T05:45:15;4.90;99.90
4002;DHT22;2015;48.670;9.060;2023-12-20T05:47:47;5.00;99.90
4002;DHT22;2015;48.670;9.060;2023-12-20T05:50:19;5.00;99.90
4002;DHT22;2015;48.670;9.060;2023-12-20T05:52:52;4.90;99.90
4002;DHT22;2015;48.670;9.060;2023-12-20T05:55:25;5.00;99.90
4002;DHT22;2015;48.670;9.060;2023-12-20T05:57:57;5.00;99.90
4002;DHT22;2015;48.670;9.060;2023-12-20T06:00:29;5.00;99.90
4002;DHT22;2015;48.670;9.060;2023-12-20T06:03:00;5.00;99.90
4002;DHT22;2015;48.670;9.060;2023-12-20T06:05:32;5.00;99.90
4002;DHT22;2015;48.670;9.060;2023-12-20T06:08:04;5.00;99.90
4002;DHT22;2015;48.670;9.060;2023-12-20T06:10:36;5.00;99.90
4002;DHT22;2015;48.670;9.060;2023-12-20T06:13:08;4.90;99.90
4002;DHT22;2015;48.670;9.060;2023-12-20T06:15:40;4.90;99.90
4002;DHT22;2015;48.670;9.060;2023-12-20T06:18:12;4.90;99.90
4002;DHT22;2015;48.670;9.060;2023-12-20T06:20:43;4.90;99.90
4002;DHT22;2015;48.670;9.060;2023-12-20T06:23:15;4.80;99.90
4002;DHT22;2015;48.670;9.060;2023-12-20T06:25:47;4.80;99.90
4002;DHT22;2015;48.670;9.060;2023-12-20T06:28:19;4.80;99.90
4002;DHT22;2015;48.670;9.060;2023-12-20T06:30:51;4.80;99.90
4002;DHT22;2015;48.670;9.060;2023-12-20T06:33:24;4.80;99.90
4002;DHT22;2015;48.670;9.060;2023-12-20T06:35:56;4.90;99.90
4002;DHT22;2015;48.670;9.060;2023-12-20T06:38:28;5.00;99.90
4002;DHT22;2015;48.670;9.060;2023-12-20T06:41:00;4.90;99.90
4002;DHT22;2015;48.670;9.060;2023-12-20T06:43:32;4.90;99.90
4002;DHT22;2015;48.670;9.060;2023-12-20T06:46:20;5.00;99.90
4002;DHT22;2015;48.670;9.060;2023-12-20T06:48:51;5.00;99.90
4002;DHT22;2015;48.670;9.060;2023-12-20T06:51:24;5.00;99.90
4002;DHT22;2015;48.670;9.060;2023-12-20T06:53:57;5.10;99.90
4002;DHT22;2015;48.670;9.060;2023-12-20T06:56:29;5.10;99.90
4002;DHT22;2015;48.670;9.060;2023-12-20T06:59:00;5.10;99.90
4002;DHT22;2015;48.670;9.060;2023-12-20T07:01:32;5.10;99.90
4002;DHT22;2015;48.670;9.060;2023-12-20T07:04:04;5.10;99.90
4002;DHT22;2015;48.670;9.060;2023-12-20T07:06:36;5.10;99.90
4002;DHT22;2015;48.670;9.060;2023-12-20T07:09:08;5.10;99.90
4002;DHT22;2015;48.670;9.060;2023-12-20T07:11:40;5.10;99.90
4002;DHT22;2015;48.670;9.060;2023-12-20T07:14:12;5.10;99.90
4002;DHT22;2015;48.670;9.060;2023-12-20T07:16:43;5.10;99.90
4002;DHT22;2015;48.670;9.060;2023-12-20T07:19:15;5.10;99.90
4002;DHT22;2015;48.670;9.060;2023-12-20T07:21:47;5.00;99.90
4002;DHT22;2015;48.670;9.060;2023-12-20T07:24:19;5.10;99.90
4002;DHT22;2015;48.670;9.060;2023-12-20T07:26:51;5.10;99.90
4002;DHT22;2015;48.670;9.060;2023-12-20T07:29:23;5.00;99.90
4002;DHT22;2015;48.670;9.060;2023-12-20T07:31:55;5.00;99.90
4002;DHT22;2015;48.670;9.060;2023-12-20T07:34:27;5.00;99.90
4002;DHT22;2015;48.670;9.060;2023-12-20T07:36:58;5.10;99.90
4002;DHT22;2015;48.670;9.060;2023-12-20T07:39:30;5.10;99.90
4002;DHT22;2015;48.670;9.060;2023-12-20T07:42:02;5.10;99.90
4002;DHT22;2015;48.670;9.060;2023-12-20T07:44:35;5.10;99.90
4002;DHT22;2015;48.670;9.060;2023-12-20T07:47:09;5.00;99.90
4002;DHT22;2015;48.670;9.060;2023-12-20T07:49:42;5.10;99.90
4002;DHT22;2015;48.670;9.060;2023-12-20T07:52:14;5.10;99.90
4002;DHT22;2015;48.670;9.060;2023-12-20T07:54:46;5.10;99.90
4002;DHT22;2015;48.670;9.060;2023-12-20T07:57:18;5.00;99.90
4002;DHT22;2015;48.670;9.060;2023-12-20T07:59:50;5.00;99.90
4002;DHT22;2015;48.670;9.060;2023-12-20T08:02:22;5.00;99.90
4002;DHT22;2015;48.670;9.060;2023-12-20T08:04:53;5.00;99.90
4002;DHT22;2015;48.670;9.060;2023-12-20T08:07:25;5.00;99.90
4002;DHT22;2015;48.670;9.060;2023-12-20T08:09:57;5.10;99.90
4002;DHT22;2015;48.670;9.060;2023-12-20T08:12:29;5.10;99.90
4002;DHT22;2015;48.670;9.060;2023-12-20T08:15:01;5.10;99.90
4002;DHT22;2015;48.670;9.060;2023-12-20T08:17:33;5.10;99.90
4002;DHT22;2015;48.670;9.060;2023-12-20T08:20:05;5.10;99.90
4002;DHT22;2015;48.670;9.060;2023-12-20T08:22:38;5.10;99.90
4002;DHT22;2015;48.670;9.060;2023-12-20T08:25:09;5.10;99.90
4002;DHT22;2015;48.670;9.060;2023-12-20T08:27:41;5.10;99.90
4002;DHT22;2015;48.670;9.060;2023-12-20T08:30:14;5.10;99.90
4002;DHT22;2015;48.670;9.060;2023-12-20T08:32:45;5.20;99.90
4002;DHT22;2015;48.670;9.060;2023-12-20T08:35:17;5.20;99.90
4002;DHT22;2015;48.670;9.060;2023-12-20T08:37:50;5.20;99.90
4002;DHT22;2015;48.670;9.060;2023-12-20T08:40:22;5.10;99.90
4002;DHT22;2015;48.670;9.060;2023-12-20T08:42:55;5.20;99.90
4002;DHT22;2015;48.670;9.060;2023-12-20T08:45:27;5.20;99.90
4002;DHT22;2015;48.670;9.060;2023-12-20T08:47:58;5.10;99.90
4002;DHT22;2015;48.670;9.060;2023-12-20T08:50:33;5.10;99.90
4002;DHT22;2015;48.670;9.060;2023-12-20T08:53:05;5.00;99.90
4002;DHT22;2015;48.670;9.060;2023-12-20T08:55:37;5.00;99.90
4002;DHT22;2015;48.670;9.060;2023-12-20T08:58:09;5.00;99.90
4002;DHT22;2015;48.670;9.060;2023-12-20T09:00:41;4.90;99.90
4002;DHT22;2015;48.670;9.060;2023-12-20T09:03:13;4.80;99.90
4002;DHT22;2015;48.670;9.060;2023-12-20T09:05:45;4.90;99.90
4002;DHT22;2015;48.670;9.060;2023-12-20T09:08:16;4.80;99.90
4002;DHT22;2015;48.670;9.060;2023-12-20T09:10:48;4.80;99.90
4002;DHT22;2015;48.670;9.060;2023-12-20T09:13:20;4.80;99.90
4002;DHT22;2015;48.670;9.060;2023-12-20T09:15:56;4.70;99.90
4002;DHT22;2015;48.670;9.060;2023-12-20T09:18:28;4.70;99.90
4002;DHT22;2015;48.670;9.060;2023-12-20T09:21:00;4.90;99.90
4002;DHT22;2015;48.670;9.060;2023-12-20T09:23:32;5.60;99.90
4002;DHT22;2015;48.670;9.060;2023-12-20T09:26:04;5.80;99.90
4002;DHT22;2015;48.670;9.060;2023-12-20T09:28:35;5.70;99.90
4002;DHT22;2015;48.670;9.060;2023-12-20T09:31:09;5.60;99.90
4002;DHT22;2015;48.670;9.060;2023-12-20T09:33:41;5.30;99.90
4002;DHT22;2015;48.670;9.060;2023-12-20T09:36:13;5.10;99.90
4002;DHT22;2015;48.670;9.060;2023-12-20T09:38:44;5.00;99.90
4002;DHT22;2015;48.670;9.060;2023-12-20T09:41:18;5.30;99.90
4002;DHT22;2015;48.670;9.060;2023-12-20T09:43:53;6.50;99.90
4002;DHT22;2015;48.670;9.060;2023-12-20T09:46:26;8.00;99.90
4002;DHT22;2015;48.670;9.060;2023-12-20T09:49:01;9.40;99.90
4002;DHT22;2015;48.670;9.060;2023-12-20T09:51:33;9.60;99.90
4002;DHT22;2015;48.670;9.060;2023-12-20T09:54:06;9.40;99.90
4002;DHT22;2015;48.670;9.060;2023-12-20T09:56:38;8.90;99.90
4002;DHT22;2015;48.670;9.060;2023-12-20T09:59:10;8.20;99.90
4002;DHT22;2015;48.670;9.060;2023-12-20T10:01:42;7.40;99.90
4002;DHT22;2015;48.670;9.060;2023-12-20T10:04:15;7.30;99.90
4002;DHT22;2015;48.670;9.060;2023-12-20T10:07:02;7.30;99.90
4002;DHT22;2015;48.670;9.060;2023-12-20T10:09:38;7.20;99.90
4002;DHT22;2015;48.670;9.060;2023-12-20T10:12:10;7.10;99.90
4002;DHT22;2015;48.670;9.060;2023-12-20T10:14:42;6.90;99.90
4002;DHT22;2015;48.670;9.060;2023-12-20T10:17:13;6.80;99.90
4002;DHT22;2015;48.670;9.060;2023-12-20T10:19:45;6.70;99.90
4002;DHT22;2015;48.670;9.060;2023-12-20T10:22:17;6.60;99.90
4002;DHT22;2015;48.670;9.060;2023-12-20T10:24:49;6.40;99.90
4002;DHT22;2015;48.670;9.060;2023-12-20T10:27:21;6.30;99.90
4002;DHT22;2015;48.670;9.060;2023-12-20T10:29:52;6.20;99.90
4002;DHT22;2015;48.670;9.060;2023-12-20T10:32:26;6.20;99.90
4002;DHT22;2015;48.670;9.060;2023-12-20T10:34:58;6.10;99.90
4002;DHT22;2015;48.670;9.060;2023-12-20T10:37:31;6.10;99.90
4002;DHT22;2015;48.670;9.060;2023-12-20T10:40:07;6.10;99.90
4002;DHT22;2015;48.670;9.060;2023-12-20T10:42:39;5.90;99.90
4002;DHT22;2015;48.670;9.060;2023-12-20T10:45:12;5.80;99.90
4002;DHT22;2015;48.670;9.060;2023-12-20T10:47:47;5.80;99.90
4002;DHT22;2015;48.670;9.060;2023-12-20T10:50:21;5.90;99.90
4002;DHT22;2015;48.670;9.060;2023-12-20T10:52:54;5.80;99.90
4002;DHT22;2015;48.670;9.060;2023-12-20T10:55:27;5.70;99.90
4002;DHT22;2015;48.670;9.060;2023-12-20T10:58:20;5.70;99.90
4002;DHT22;2015;48.670;9.060;2023-12-20T11:00:59;5.80;99.90
4002;DHT22;2015;48.670;9.060;2023-12-20T11:03:35;5.80;99.90
4002;DHT22;2015;48.670;9.060;2023-12-20T11:09:14;5.60;99.90
4002;DHT22;2015;48.670;9.060;2023-12-20T11:14:46;5.50;99.90
4002;DHT22;2015;48.670;9.060;2023-12-20T11:17:18;5.50;99.90
4002;DHT22;2015;48.670;9.060;2023-12-20T11:22:32;5.50;99.90
4002;DHT22;2015;48.670;9.060;2023-12-20T11:25:11;5.40;99.90
4002;DHT22;2015;48.670;9.060;2023-12-20T11:27:43;5.40;99.90
4002;DHT22;2015;48.670;9.060;2023-12-20T11:30:17;5.50;99.90
4002;DHT22;2015;48.670;9.060;2023-12-20T11:32:49;5.60;99.90
4002;DHT22;2015;48.670;9.060;2023-12-20T11:35:21;5.60;99.90
4002;DHT22;2015;48.670;9.060;2023-12-20T11:37:53;5.70;99.90
4002;DHT22;2015;48.670;9.060;2023-12-20T11:40:25;5.80;99.90
4002;DHT22;2015;48.670;9.060;2023-12-20T11:42:57;5.80;99.90
4002;DHT22;2015;48.670;9.060;2023-12-20T11:45:29;5.60;99.90
4002;DHT22;2015;48.670;9.060;2023-12-20T11:48:02;5.60;99.90
4002;DHT22;2015;48.670;9.060;2023-12-20T11:50:34;5.50;99.90
4002;DHT22;2015;48.670;9.060;2023-12-20T11:53:06;5.50;99.90
4002;DHT22;2015;48.670;9.060;2023-12-20T11:55:37;5.50;99.90
4002;DHT22;2015;48.670;9.060;2023-12-20T11:58:09;5.50;99.90
4002;DHT22;2015;48.670;9.060;2023-12-20T12:00:42;5.40;99.90
4002;DHT22;2015;48.670;9.060;2023-12-20T12:03:15;5.40;99.90
4002;DHT22;2015;48.670;9.060;2023-12-20T12:05:47;5.40;99.90
4002;DHT22;2015;48.670;9.060;2023-12-20T12:08:20;5.40;99.90
4002;DHT22;2015;48.670;9.060;2023-12-20T12:10:52;5.40;99.90
4002;DHT22;2015;48.670;9.060;2023-12-20T12:13:24;5.40;99.90
4002;DHT22;2015;48.670;9.060;2023-12-20T12:15:59;5.50;99.90
4002;DHT22;2015;48.670;9.060;2023-12-20T12:18:31;5.50;99.90
4002;DHT22;2015;48.670;9.060;2023-12-20T12:21:03;5.60;99.90
4002;DHT22;2015;48.670;9.060;2023-12-20T12:23:44;5.60;99.90
4002;DHT22;2015;48.670;9.060;2023-12-20T12:26:16;5.60;99.90
4002;DHT22;2015;48.670;9.060;2023-12-20T12:28:47;5.60;99.90
4002;DHT22;2015;48.670;9.060;2023-12-20T12:31:22;5.70;99.90
4002;DHT22;2015;48.670;9.060;2023-12-20T12:33:57;5.80;99.90
4002;DHT22;2015;48.670;9.060;2023-12-20T12:36:29;5.80;99.90
4002;DHT22;2015;48.670;9.060;2023-12-20T12:39:05;5.80;99.90
4002;DHT22;2015;48.670;9.060;2023-12-20T12:41:36;5.80;99.90
4002;DHT22;2015;48.670;9.060;2023-12-20T12:44:08;5.80;99.90
4002;DHT22;2015;48.670;9.060;2023-12-20T12:46:48;5.90;99.90
4002;DHT22;2015;48.670;9.060;2023-12-20T12:49:22;5.90;99.90
4002;DHT22;2015;48.670;9.060;2023-12-20T12:51:54;5.90;99.90
4002;DHT22;2015;48.670;9.060;2023-12-20T12:54:29;5.90;99.90
4002;DHT22;2015;48.670;9.060;2023-12-20T12:57:01;5.90;99.90
4002;DHT22;2015;48.670;9.060;2023-12-20T12:59:33;5.90;99.90
4002;DHT22;2015;48.670;9.060;2023-12-20T13:02:08;6.00;99.90
4002;DHT22;2015;48.670;9.060;2023-12-20T13:04:43;6.00;99.90
4002;DHT22;2015;48.670;9.060;2023-12-20T13:07:15;6.00;99.90
4002;DHT22;2015;48.670;9.060;2023-12-20T13:09:48;5.90;99.90
4002;DHT22;2015;48.670;9.060;2023-12-20T13:12:20;5.90;99.90
4002;DHT22;2015;48.670;9.060;2023-12-20T13:14:53;6.00;99.90
4002;DHT22;2015;48.670;9.060;2023-12-20T13:17:25;5.90;99.90
4002;DHT22;2015;48.670;9.060;2023-12-20T13:19:59;5.90;99.90
4002;DHT22;2015;48.670;9.060;2023-12-20T13:22:31;5.90;99.90
4002;DHT22;2015;48.670;9.060;2023-12-20T13:25:04;5.90;99.90
4002;DHT22;2015;48.670;9.060;2023-12-20T13:27:36;5.90;99.90
4002;DHT22;2015;48.670;9.060;2023-12-20T13:30:09;5.90;99.90
4002;DHT22;2015;48.670;9.060;2023-12-20T13:32:41;5.90;99.90
4002;DHT22;2015;48.670;9.060;2023-12-20T13:35:13;5.80;99.90
4002;DHT22;2015;48.670;9.060;2023-12-20T13:37:45;5.80;99.90
4002;DHT22;2015;48.670;9.060;2023-12-20T13:40:18;5.90;99.90
4002;DHT22;2015;48.670;9.060;2023-12-20T13:42:50;5.90;99.90
4002;DHT22;2015;48.670;9.060;2023-12-20T13:45:22;5.80;99.90
4002;DHT22;2015;48.670;9.060;2023-12-20T13:47:53;5.80;99.90
4002;DHT22;2015;48.670;9.060;2023-12-20T13:50:25;5.80;99.90
4002;DHT22;2015;48.670;9.060;2023-12-20T13:52:58;5.90;99.90
4002;DHT22;2015;48.670;9.060;2023-12-20T13:55:30;5.80;99.90
4002;DHT22;2015;48.670;9.060;2023-12-20T13:58:02;5.80;99.90
4002;DHT22;2015;48.670;9.060;2023-12-20T14:00:34;5.70;99.90
4002;DHT22;2015;48.670;9.060;2023-12-20T14:03:08;5.80;99.90
4002;DHT22;2015;48.670;9.060;2023-12-20T14:05:41;5.60;99.90
4002;DHT22;2015;48.670;9.060;2023-12-20T14:08:13;5.50;99.90
4002;DHT22;2015;48.670;9.060;2023-12-20T14:10:44;5.50;99.90
4002;DHT22;2015;48.670;9.060;2023-12-20T14:13:16;5.40;99.90
4002;DHT22;2015;48.670;9.060;2023-12-20T14:15:48;5.50;99.90
4002;DHT22;2015;48.670;9.060;2023-12-20T14:18:21;5.50;99.90
4002;DHT22;2015;48.670;9.060;2023-12-20T14:20:53;5.50;99.90
4002;DHT22;2015;48.670;9.060;2023-12-20T14:23:25;5.50;99.90
4002;DHT22;2015;48.670;9.060;2023-12-20T14:25:57;5.40;99.90
4002;DHT22;2015;48.670;9.060;2023-12-20T14:28:30;5.30;99.90
4002;DHT22;2015;48.670;9.060;2023-12-20T14:31:02;5.30;99.90
4002;DHT22;2015;48.670;9.060;2023-12-20T14:33:34;5.30;99.90
4002;DHT22;2015;48.670;9.060;2023-12-20T14:36:07;5.20;99.90
4002;DHT22;2015;48.670;9.060;2023-12-20T14:38:38;5.20;99.90
4002;DHT22;2015;48.670;9.060;2023-12-20T14:41:11;5.10;99.90
4002;DHT22;2015;48.670;9.060;2023-12-20T14:43:43;5.10;99.90
4002;DHT22;2015;48.670;9.060;2023-12-20T14:46:14;5.00;99.90
4002;DHT22;2015;48.670;9.060;2023-12-20T14:48:47;5.00;99.90
4002;DHT22;2015;48.670;9.060;2023-12-20T14:51:19;4.90;99.90
4002;DHT22;2015;48.670;9.060;2023-12-20T14:53:51;4.80;99.90
4002;DHT22;2015;48.670;9.060;2023-12-20T14:56:26;4.80;99.90
4002;DHT22;2015;48.670;9.060;2023-12-20T14:58:58;4.90;99.90
4002;DHT22;2015;48.670;9.060;2023-12-20T15:01:33;4.90;99.90
4002;DHT22;2015;48.670;9.060;2023-12-20T15:04:06;4.80;99.90
4002;DHT22;2015;48.670;9.060;2023-12-20T15:06:37;4.80;99.90
4002;DHT22;2015;48.670;9.060;2023-12-20T15:09:09;4.70;99.90
4002;DHT22;2015;48.670;9.060;2023-12-20T15:11:41;4.80;99.90
4002;DHT22;2015;48.670;9.060;2023-12-20T15:14:13;4.80;99.90
4002;DHT22;2015;48.670;9.060;2023-12-20T15:16:51;4.80;99.90
4002;DHT22;2015;48.670;9.060;2023-12-20T15:19:22;4.70;99.90
4002;DHT22;2015;48.670;9.060;2023-12-20T15:21:54;4.70;99.90
4002;DHT22;2015;48.670;9.060;2023-12-20T15:24:26;4.70;99.90
4002;DHT22;2015;48.670;9.060;2023-12-20T15:27:00;4.60;99.90
4002;DHT22;2015;48.670;9.060;2023-12-20T15:29:32;4.50;99.90
4002;DHT22;2015;48.670;9.060;2023-12-20T15:32:04;4.50;99.90
4002;DHT22;2015;48.670;9.060;2023-12-20T15:34:36;4.50;99.90
4002;DHT22;2015;48.670;9.060;2023-12-20T15:37:08;4.50;99.90
4002;DHT22;2015;48.670;9.060;2023-12-20T15:39:41;4.50;99.90
4002;DHT22;2015;48.670;9.060;2023-12-20T15:42:13;4.50;99.90
4002;DHT22;2015;48.670;9.060;2023-12-20T15:44:44;4.50;99.90
4002;DHT22;2015;48.670;9.060;2023-12-20T15:47:16;4.50;99.90
4002;DHT22;2015;48.670;9.060;2023-12-20T15:49:48;4.60;99.90
4002;DHT22;2015;48.670;9.060;2023-12-20T15:52:21;4.50;99.90
4002;DHT22;2015;48.670;9.060;2023-12-20T15:54:53;4.60;99.90
4002;DHT22;2015;48.670;9.060;2023-12-20T15:57:25;4.50;99.90
4002;DHT22;2015;48.670;9.060;2023-12-20T15:59:58;4.50;99.90
4002;DHT22;2015;48.670;9.060;2023-12-20T16:02:30;4.50;99.90
4002;DHT22;2015;48.670;9.060;2023-12-20T16:05:02;4.40;99.90
4002;DHT22;2015;48.670;9.060;2023-12-20T16:07:34;4.50;99.90
4002;DHT22;2015;48.670;9.060;2023-12-20T16:10:06;4.50;99.90
4002;DHT22;2015;48.670;9.060;2023-12-20T16:12:39;4.40;99.90
4002;DHT22;2015;48.670;9.060;2023-12-20T16:15:10;4.40;99.90
4002;DHT22;2015;48.670;9.060;2023-12-20T16:17:42;4.40;99.90
4002;DHT22;2015;48.670;9.060;2023-12-20T16:20:14;4.40;99.90
4002;DHT22;2015;48.670;9.060;2023-12-20T16:22:46;4.40;99.90
4002;DHT22;2015;48.670;9.060;2023-12-20T16:25:18;4.40;99.90
4002;DHT22;2015;48.670;9.060;2023-12-20T16:27:50;4.30;99.90
4002;DHT22;2015;48.670;9.060;2023-12-20T16:30:22;4.30;99.90
4002;DHT22;2015;48.670;9.060;2023-12-20T16:32:54;4.40;99.90
4002;DHT22;2015;48.670;9.060;2023-12-20T16:35:26;4.30;99.90
4002;DHT22;2015;48.670;9.060;2023-12-20T16:37:58;4.30;99.90
4002;DHT22;2015;48.670;9.060;2023-12-20T16:40:29;4.30;99.90
4002;DHT22;2015;48.670;9.060;2023-12-20T16:43:01;4.30;99.90
4002;DHT22;2015;48.670;9.060;2023-12-20T16:45:34;4.30;99.90
4002;DHT22;2015;48.670;9.060;2023-12-20T16:48:06;4.30;99.90
4002;DHT22;2015;48.670;9.060;2023-12-20T16:50:38;4.30;99.90
4002;DHT22;2015;48.670;9.060;2023-12-20T16:53:11;4.30;99.90
4002;DHT22;2015;48.670;9.060;2023-12-20T16:55:42;4.30;99.90
4002;DHT22;2015;48.670;9.060;2023-12-20T16:58:16;4.40;99.90